Time;durP1;ratioP1;P1;durP2;ratioP2;P2;SDS_P1;SDS_P2;PMS_P1;PMS_P2;Temp;Humidity;BMP_temperature;BMP_pressure;BME280_temperature;BME280_humidity;BME280_pressure;Samples;Min_cycle;Max_cycle;Signal;HPM_P1;HPM_P2
2022/08/15 00:00:58;;;;;;;1.20;1.20;;;;;;;22.08;57.67;94528.09;4376909;32;20188;-61
2022/08/15 00:03:40;;;;;;;1.03;1.03;;;;;;;21.98;57.54;94521.53;4382163;32;20230;-61
2022/08/15 00:06:09;;;;;;;1.33;1.33;;;;;;;21.98;57.73;94526.94;4384757;32;20210;-61
2022/08/15 00:08:38;;;;;;;4.07;1.57;;;;;;;22.00;57.56;94529.25;4380027;32;20203;-61
2022/08/15 00:11:16;;;;;;;1.33;1.30;;;;;;;22.06;57.37;94530.41;4368366;32;20215;-61
2022/08/15 00:13:44;;;;;;;1.40;1.40;;;;;;;21.99;57.75;94522.31;4377038;32;20236;-61
2022/08/15 00:16:11;;;;;;;1.03;1.03;;;;;;;22.04;57.62;94530.81;4380973;32;20185;-61
2022/08/15 00:18:36;;;;;;;0.90;0.90;;;;;;;22.05;57.27;94523.47;4366726;32;20201;-61
2022/08/15 00:21:05;;;;;;;1.50;1.47;;;;;;;21.97;57.13;94519.22;4375839;32;20230;-61
2022/08/15 00:23:30;;;;;;;0.97;0.90;;;;;;;21.97;57.81;94525.38;4374913;32;20266;-61
2022/08/15 00:25:59;;;;;;;0.77;0.77;;;;;;;21.97;57.83;94522.69;4373130;32;20291;-61
2022/08/15 00:28:26;;;;;;;2.07;1.57;;;;;;;21.89;57.94;94524.59;4382283;32;20180;-61
2022/08/15 00:30:53;;;;;;;4.87;1.87;;;;;;;21.90;58.00;94530.78;4377933;32;20189;-61
2022/08/15 00:33:18;;;;;;;1.17;1.17;;;;;;;21.87;58.15;94523.44;4372596;32;20250;-61
2022/08/15 00:35:46;;;;;;;1.93;1.73;;;;;;;21.84;58.11;94526.91;4377321;32;20185;-61
2022/08/15 00:38:16;;;;;;;1.10;1.10;;;;;;;21.88;58.06;94525.75;4382615;32;20185;-61
2022/08/15 00:43:28;;;;;;;1.37;1.37;;;;;;;21.82;58.17;94523.84;4383625;32;20218;-60
2022/08/15 00:45:53;;;;;;;1.60;1.50;;;;;;;21.75;57.98;94526.53;4385548;32;20224;-60
2022/08/15 00:51:09;;;;;;;0.93;0.93;;;;;;;21.77;58.29;94537.72;4379785;32;20267;-61
2022/08/15 00:53:36;;;;;;;1.13;1.13;;;;;;;21.88;58.53;94533.84;4384581;32;20248;-61
2022/08/15 00:56:05;;;;;;;1.53;1.53;;;;;;;21.94;58.12;94536.97;4379445;32;20197;-60
2022/08/15 00:58:31;;;;;;;1.90;1.80;;;;;;;21.93;58.13;94530.00;4377836;32;20197;-61
2022/08/15 01:00:57;;;;;;;1.10;1.10;;;;;;;21.92;58.43;94534.63;4379440;32;20475;-61
2022/08/15 01:03:30;;;;;;;1.57;1.47;;;;;;;21.87;58.28;94529.63;4378884;32;20207;-60
2022/08/15 01:06:00;;;;;;;2.40;1.87;;;;;;;21.89;58.32;94530.00;4376646;32;20195;-60
2022/08/15 01:08:30;;;;;;;1.80;1.67;;;;;;;21.91;58.66;94529.63;4385195;32;20188;-60
2022/08/15 01:10:57;;;;;;;1.30;1.27;;;;;;;21.93;58.23;94530.00;4372287;32;20382;-60
2022/08/15 01:13:23;;;;;;;1.30;1.30;;;;;;;21.95;58.25;94530.41;4381382;32;20233;-60
2022/08/15 01:15:48;;;;;;;1.03;1.00;;;;;;;21.88;58.56;94523.06;4381091;32;20189;-60
2022/08/15 01:18:14;;;;;;;1.70;1.60;;;;;;;21.91;58.64;94526.91;4372640;32;20232;-60
2022/08/15 01:20:43;;;;;;;1.53;1.47;;;;;;;21.99;58.03;94519.59;4387545;32;20173;-61
2022/08/15 01:23:36;;;;;;;1.50;1.40;;;;;;;21.84;58.96;94524.97;4380558;32;20207;-61
2022/08/15 01:26:07;;;;;;;1.40;1.30;;;;;;;21.91;58.60;94527.69;4388820;32;20195;-60
2022/08/15 01:28:42;;;;;;;1.10;1.10;;;;;;;21.97;58.52;94524.62;4378959;32;20195;-60
2022/08/15 01:31:11;;;;;;;1.00;1.00;;;;;;;21.95;58.81;94519.59;4374075;32;20197;-61
2022/08/15 01:33:41;;;;;;;1.80;1.37;;;;;;;21.79;59.00;94517.28;4381049;32;20189;-60
2022/08/15 01:36:07;;;;;;;1.10;1.10;;;;;;;21.82;59.00;94524.59;4369717;32;20185;-60
2022/08/15 01:38:43;;;;;;;0.80;0.80;;;;;;;21.76;59.07;94530.78;4381825;32;20219;-60
2022/08/15 01:41:21;;;;;;;0.60;0.60;;;;;;;21.79;59.37;94519.97;4379555;32;20180;-60
2022/08/15 01:43:56;;;;;;;1.10;1.10;;;;;;;21.82;59.34;94521.87;4365454;32;20204;-59
2022/08/15 01:46:26;;;;;;;1.07;1.07;;;;;;;21.83;59.40;94520.72;4376055;32;20184;-60
2022/08/15 01:49:01;;;;;;;1.80;1.73;;;;;;;21.78;59.12;94521.13;4386255;32;20252;-60
2022/08/15 01:51:26;;;;;;;1.73;1.63;;;;;;;21.80;59.80;94526.16;4383015;32;20646;-60
2022/08/15 01:54:09;;;;;;;1.13;1.13;;;;;;;21.68;59.12;94527.28;4379562;32;20236;-60
2022/08/15 01:56:38;;;;;;;1.20;1.20;;;;;;;21.61;59.52;94524.59;4371358;32;20223;-60
2022/08/15 01:59:07;;;;;;;1.67;1.40;;;;;;;21.68;59.56;94521.87;4374370;32;20244;-60
2022/08/15 02:01:55;;;;;;;1.00;1.00;;;;;;;21.64;59.61;94525.72;4392268;32;20200;-60
2022/08/15 02:04:28;;;;;;;1.23;1.20;;;;;;;21.61;60.10;94524.59;4382463;32;20185;-60
2022/08/15 02:06:56;;;;;;;1.20;1.20;;;;;;;21.65;59.87;94530.72;4381643;32;20242;-60
2022/08/15 02:09:21;;;;;;;1.93;1.07;;;;;;;21.61;59.94;94530.72;4387515;32;20193;-60
2022/08/15 02:11:49;;;;;;;1.30;1.30;;;;;;;21.70;59.82;94527.66;4379368;32;20227;-60
2022/08/15 02:14:15;;;;;;;0.70;0.70;;;;;;;21.74;59.75;94530.38;4379389;32;20321;-60
2022/08/15 02:16:41;;;;;;;1.53;1.47;;;;;;;21.70;59.73;94530.38;4385756;32;20223;-61
2022/08/15 02:19:10;;;;;;;1.43;1.43;;;;;;;21.78;60.07;94534.63;4381319;32;20205;-62
2022/08/15 02:21:39;;;;;;;0.50;0.50;;;;;;;21.68;59.88;94545.41;4388242;32;20180;-60
2022/08/15 02:24:11;;;;;;;2.10;1.10;;;;;;;21.63;59.95;94543.84;4386514;32;20180;-60
2022/08/15 02:26:37;;;;;;;8.13;1.77;;;;;;;21.56;60.08;94549.25;4382977;32;20189;-60
2022/08/15 02:29:03;;;;;;;2.73;1.37;;;;;;;21.68;60.44;94543.47;4395910;32;20233;-60
2022/08/15 02:31:30;;;;;;;0.57;0.57;;;;;;;21.52;60.24;94543.84;4385180;32;20207;-60
2022/08/15 02:33:58;;;;;;;1.33;1.33;;;;;;;21.61;60.54;94546.91;4379087;32;20176;-60
2022/08/15 02:36:25;;;;;;;1.13;1.13;;;;;;;21.59;60.64;94543.09;4375568;32;20227;-60
2022/08/15 02:38:51;;;;;;;1.00;1.00;;;;;;;21.55;60.55;94553.09;4369727;32;20211;-60
2022/08/15 02:41:40;;;;;;;1.30;1.27;;;;;;;21.42;61.09;94543.78;4373632;32;20193;-60
2022/08/15 02:44:06;;;;;;;1.23;1.17;;;;;;;21.44;60.72;94542.25;4378594;32;20184;-60
2022/08/15 02:46:32;;;;;;;3.83;1.23;;;;;;;21.42;61.22;94541.09;4370983;32;20193;-60
2022/08/15 02:49:01;;;;;;;1.00;1.00;;;;;;;21.47;60.64;94551.53;4379255;32;20204;-61
2022/08/15 02:51:27;;;;;;;0.83;0.83;;;;;;;;;;4374427;32;20189;-60
2022/08/15 02:53:54;;;;;;;1.03;1.03;;;;;;;21.44;60.77;94544.19;4385907;32;20271;-60
2022/08/15 02:56:24;;;;;;;0.97;0.97;;;;;;;21.48;61.71;94536.87;4388648;32;20193;-60
2022/08/15 02:58:50;;;;;;;1.70;1.17;;;;;;;21.47;60.88;94546.13;4377409;32;20184;-60
2022/08/15 03:01:17;;;;;;;1.30;1.20;;;;;;;21.45;61.13;94541.09;4381132;32;20193;-60
2022/08/15 03:03:45;;;;;;;1.10;0.90;;;;;;;21.43;60.96;94546.09;4389876;32;20188;-60
2022/08/15 03:06:13;;;;;;;0.77;0.77;;;;;;;21.43;60.88;94548.81;4369385;32;20188;-60
2022/08/15 03:08:40;;;;;;;0.80;0.80;;;;;;;21.44;61.07;94546.88;4367500;32;20207;-61
2022/08/15 03:11:07;;;;;;;1.30;1.30;;;;;;;21.49;61.33;94543.81;4369525;32;20189;-60
2022/08/15 03:13:34;;;;;;;0.50;0.50;;;;;;;21.44;61.38;94550.34;4375714;32;20184;-60
2022/08/15 03:16:01;;;;;;;1.00;1.00;;;;;;;21.51;60.72;94547.69;4375495;32;20203;-60
2022/08/15 03:18:30;;;;;;;0.70;0.70;;;;;;;21.49;61.12;94551.91;4380868;32;20219;-60
2022/08/15 03:20:57;;;;;;;0.80;0.80;;;;;;;21.51;60.35;94555.78;4380188;32;20207;-60
2022/08/15 03:23:27;;;;;;;0.60;0.60;;;;;;;21.47;60.53;94544.19;4365774;32;20209;-63
2022/08/15 03:25:54;;;;;;;0.70;0.70;;;;;;;21.48;60.78;94547.66;4391105;32;20190;-60
2022/08/15 03:28:22;;;;;;;1.33;1.33;;;;;;;21.45;60.81;94554.59;4379401;32;20254;-60
2022/08/15 03:30:48;;;;;;;0.73;0.73;;;;;;;21.54;60.81;94556.94;4373098;32;20223;-60
2022/08/15 03:33:14;;;;;;;0.60;0.60;;;;;;;21.54;60.58;94565.03;4378102;32;20184;-60
2022/08/15 03:35:48;;;;;;;0.50;0.50;;;;;;;21.51;60.65;94563.09;4365805;32;20280;-61
2022/08/15 03:38:14;;;;;;;1.10;1.10;;;;;;;21.42;60.80;94560.75;4372888;32;20199;-60
2022/08/15 03:40:41;;;;;;;0.70;0.70;;;;;;;21.42;61.49;94568.06;4377871;32;20189;-60
2022/08/15 03:43:11;;;;;;;1.03;1.03;;;;;;;21.47;60.58;94565.78;4376971;32;20257;-61
2022/08/15 03:45:38;;;;;;;0.70;0.70;;;;;;;21.42;61.25;94570.78;4395941;32;20208;-61
2022/08/15 03:48:05;;;;;;;0.83;0.83;;;;;;;21.41;60.93;94566.53;4378216;32;20225;-60
2022/08/15 03:50:32;;;;;;;0.70;0.70;;;;;;;21.33;60.95;94570.38;4371038;32;20237;-60
2022/08/15 03:53:06;;;;;;;0.63;0.63;;;;;;;21.37;60.91;94574.63;4375547;32;20193;-60
2022/08/15 03:55:35;;;;;;;0.90;0.90;;;;;;;21.37;60.81;94576.56;4373760;32;20262;-60
2022/08/15 03:58:01;;;;;;;0.67;0.67;;;;;;;21.37;61.40;94581.97;4377901;32;20181;-60
2022/08/15 04:00:29;;;;;;;0.70;0.70;;;;;;;21.36;61.21;94566.91;4377183;32;20235;-60
2022/08/15 04:03:12;;;;;;;0.97;0.97;;;;;;;21.41;61.08;94574.63;4376708;32;20310;-60
2022/08/15 04:05:38;;;;;;;2.43;0.60;;;;;;;21.48;60.96;94563.88;4374155;32;20189;-61
2022/08/15 04:08:05;;;;;;;1.90;0.67;;;;;;;21.40;61.10;94573.09;4375884;32;20251;-60
2022/08/15 04:10:31;;;;;;;1.13;1.03;;;;;;;21.34;61.68;94575.41;4374527;32;20279;-60
2022/08/15 04:12:58;;;;;;;0.97;0.90;;;;;;;21.37;61.67;94573.87;4374418;32;20282;-63
2022/08/15 04:15:24;;;;;;;1.07;1.07;;;;;;;21.40;61.80;94579.28;4385022;32;20192;-60
2022/08/15 04:17:51;;;;;;;0.80;0.80;;;;;;;21.38;61.80;94580.81;4377578;32;20211;-60
2022/08/15 04:20:17;;;;;;;1.07;1.07;;;;;;;21.41;61.74;94590.81;4377234;32;20179;-60
2022/08/15 04:22:47;;;;;;;0.87;0.87;;;;;;;21.35;62.31;94593.12;4382171;32;20185;-60
2022/08/15 04:25:27;;;;;;;0.50;0.50;;;;;;;21.35;62.47;94593.12;4379473;32;20225;-60
2022/08/15 04:27:56;;;;;;;0.50;0.50;;;;;;;21.34;62.55;94601.59;4382514;32;20197;-60
2022/08/15 04:30:25;;;;;;;0.67;0.67;;;;;;;21.41;62.23;94602.38;4374042;32;20184;-60
2022/08/15 04:32:52;;;;;;;0.90;0.90;;;;;;;21.41;62.72;94596.22;4379471;32;20185;-60
2022/08/15 04:35:18;;;;;;;0.60;0.60;;;;;;;21.40;62.88;94594.69;4380139;32;20180;-60
2022/08/15 04:37:43;;;;;;;1.17;1.17;;;;;;;21.33;63.21;94606.22;4378702;32;20180;-61
2022/08/15 04:40:12;;;;;;;0.70;0.70;;;;;;;21.20;63.97;94608.47;4370781;32;20195;-61
2022/08/15 04:42:49;;;;;;;0.80;0.80;;;;;;;21.25;63.62;94599.25;4382701;32;20188;-61
2022/08/15 04:45:15;;;;;;;0.77;0.77;;;;;;;21.28;63.85;94598.50;4376258;32;20231;-60
2022/08/15 04:47:41;;;;;;;0.60;0.60;;;;;;;21.19;64.11;94609.63;4382496;32;20193;-61
2022/08/15 04:50:07;;;;;;;0.87;0.87;;;;;;;21.24;63.96;94609.25;4364272;32;20238;-60
2022/08/15 04:52:32;;;;;;;0.73;0.73;;;;;;;21.31;64.48;94610.47;4380339;32;20192;-60
2022/08/15 04:54:58;;;;;;;0.80;0.80;;;;;;;21.19;64.51;94612.31;4370961;32;20260;-60
2022/08/15 04:57:23;;;;;;;0.40;0.40;;;;;;;21.23;64.65;94617.72;4378198;32;20197;-60
2022/08/15 04:59:49;;;;;;;0.83;0.83;;;;;;;21.16;65.05;94612.28;4376447;32;20192;-60
2022/08/15 05:02:22;;;;;;;0.50;0.50;;;;;;;21.12;65.56;94617.66;4378222;32;20297;-61
2022/08/15 05:04:47;;;;;;;0.93;0.93;;;;;;;21.07;66.07;94611.84;4381854;32;20234;-60
2022/08/15 05:07:13;;;;;;;0.83;0.83;;;;;;;21.04;66.56;94621.47;4383705;32;20276;-60
2022/08/15 05:09:38;;;;;;;0.60;0.60;;;;;;;20.99;67.09;94616.41;4374178;32;20193;-61
2022/08/15 05:12:04;;;;;;;2.53;0.80;;;;;;;21.03;67.23;94619.91;4373915;32;20220;-60
2022/08/15 05:14:29;;;;;;;0.57;0.57;;;;;;;21.05;67.50;94617.63;4370009;32;20237;-60
2022/08/15 05:16:54;;;;;;;1.30;1.07;;;;;;;21.04;67.84;94624.16;4369831;32;20264;-60
2022/08/15 05:19:20;;;;;;;1.20;1.20;;;;;;;20.99;68.32;94615.66;4382498;32;20230;-61
2022/08/15 05:21:46;;;;;;;0.30;0.30;;;;;;;21.04;68.06;94626.84;4380476;32;20192;-60
2022/08/15 05:24:11;;;;;;;0.50;0.50;;;;;;;20.82;69.52;94617.09;4391542;32;20191;-60
2022/08/15 05:26:38;;;;;;;0.80;0.80;;;;;;;20.91;69.52;94618.31;4388586;32;20189;-60
2022/08/15 05:29:06;;;;;;;0.80;0.80;;;;;;;20.80;70.00;94622.06;4387977;32;20243;-60
2022/08/15 05:31:32;;;;;;;0.60;0.60;;;;;;;20.81;69.64;94619.00;4379999;32;20177;-60
2022/08/15 05:34:00;;;;;;;0.73;0.73;;;;;;;20.77;70.14;94620.94;4371724;32;20338;-60
2022/08/15 05:36:26;;;;;;;0.50;0.50;;;;;;;20.80;70.40;94617.47;4366643;32;20232;-60
2022/08/15 05:39:18;;;;;;;0.43;0.43;;;;;;;20.79;70.32;94620.53;4388343;32;20248;-60
2022/08/15 05:42:05;;;;;;;0.60;0.60;;;;;;;20.76;69.73;94616.69;4370202;32;20204;-61
2022/08/15 05:45:02;;;;;;;0.43;0.43;;;;;;;20.86;68.98;94620.59;4376820;32;20185;-60
2022/08/15 05:47:37;;;;;;;0.73;0.73;;;;;;;20.88;68.72;94627.16;4363306;32;20276;-60
2022/08/15 05:50:12;;;;;;;0.53;0.53;;;;;;;20.86;69.21;94631.38;4365558;32;20211;-60
2022/08/15 05:52:56;;;;;;;0.73;0.73;;;;;;;20.92;69.41;94627.19;4378215;32;20253;-61
2022/08/15 05:55:23;;;;;;;0.73;0.73;;;;;;;20.93;69.87;94631.44;4371158;32;20202;-60
2022/08/15 05:58:10;;;;;;;0.70;0.70;;;;;;;20.79;70.53;94634.00;4391148;32;20195;-60
2022/08/15 06:00:38;;;;;;;0.67;0.53;;;;;;;20.75;71.23;94631.31;4369372;32;20242;-60
2022/08/15 06:03:15;;;;;;;0.90;0.80;;;;;;;20.66;71.17;94636.25;4374342;32;20201;-60
2022/08/15 06:05:48;;;;;;;0.40;0.40;;;;;;;20.74;71.19;94639.78;4377330;32;20203;-60
2022/08/15 06:08:18;;;;;;;1.70;1.23;;;;;;;20.66;71.09;94644.34;4370596;32;20264;-60
2022/08/15 06:10:49;;;;;;;1.03;1.03;;;;;;;20.70;70.69;94642.44;4372124;32;20185;-60
2022/08/15 06:13:23;;;;;;;0.40;0.40;;;;;;;20.67;70.71;94640.50;4389035;32;20199;-60
2022/08/15 06:15:58;;;;;;;0.70;0.70;;;;;;;20.84;70.26;94639.06;4381548;32;20199;-60
2022/08/15 06:18:26;;;;;;;0.77;0.73;;;;;;;20.89;69.47;94646.81;4370764;32;20196;-60
2022/08/15 06:21:05;;;;;;;0.67;0.67;;;;;;;20.98;68.72;94643.78;4379856;32;20248;-60
2022/08/15 06:23:39;;;;;;;0.63;0.63;;;;;;;20.93;68.52;94643.00;4374857;32;20203;-60
2022/08/15 06:26:43;;;;;;;4.43;0.93;;;;;;;20.94;67.42;94649.16;4388372;32;20188;-60
2022/08/15 06:29:45;;;;;;;0.73;0.73;;;;;;;20.93;67.26;94647.62;4366247;32;20203;-61
2022/08/15 06:32:16;;;;;;;0.53;0.53;;;;;;;20.99;67.06;94659.56;4361649;32;20208;-60
2022/08/15 06:34:52;;;;;;;0.60;0.60;;;;;;;20.97;67.25;94648.41;4379801;32;20192;-60
2022/08/15 06:37:33;;;;;;;8.03;1.47;;;;;;;20.92;67.55;94662.25;4379153;32;20184;-61
2022/08/15 06:40:20;;;;;;;0.40;0.40;;;;;;;20.94;67.18;94659.94;4374963;32;20202;-60
2022/08/15 06:42:46;;;;;;;0.33;0.33;;;;;;;20.91;67.80;94663.38;4370168;32;20242;-61
2022/08/15 06:45:17;;;;;;;0.40;0.40;;;;;;;20.93;67.51;94669.97;4395414;32;20203;-60
2022/08/15 06:47:43;;;;;;;0.43;0.43;;;;;;;20.93;67.47;94669.19;4368517;32;20176;-63
2022/08/15 06:50:24;;;;;;;0.53;0.53;;;;;;;20.90;67.99;94665.31;4375356;32;20193;-62
2022/08/15 06:52:53;;;;;;;0.47;0.47;;;;;;;20.87;68.58;94673.37;4379040;32;20306;-62
2022/08/15 06:55:21;;;;;;;0.30;0.30;;;;;;;20.92;68.51;94673.03;4391198;32;20189;-62
2022/08/15 06:58:00;;;;;;;0.50;0.50;;;;;;;20.84;69.03;94668.72;4375181;32;20200;-62
2022/08/15 07:00:55;;;;;;;0.40;0.40;;;;;;;20.86;69.11;94664.50;4375955;32;20216;-62
2022/08/15 07:03:24;;;;;;;0.63;0.63;;;;;;;20.97;68.09;94672.69;4369656;32;20197;-62
2022/08/15 07:05:55;;;;;;;0.53;0.53;;;;;;;20.90;68.61;94686.09;4365813;32;20189;-62
2022/08/15 07:08:27;;;;;;;0.50;0.50;;;;;;;20.92;68.58;94678.41;4382099;32;20184;-60
2022/08/15 07:11:09;;;;;;;0.70;0.70;;;;;;;20.87;68.90;94676.84;4371163;32;20203;-60
2022/08/15 07:13:49;;;;;;;0.40;0.40;;;;;;;20.86;69.05;94669.12;4387048;32;20248;-60
2022/08/15 07:16:29;;;;;;;0.30;0.30;;;;;;;20.73;69.90;94678.66;4369861;32;20240;-60
2022/08/15 07:19:00;;;;;;;0.70;0.70;;;;;;;20.71;70.17;94670.19;4386872;32;20227;-60
2022/08/15 07:21:25;;;;;;;0.60;0.60;;;;;;;20.82;69.91;94684.50;4380306;32;20300;-60
2022/08/15 07:24:08;;;;;;;0.40;0.40;;;;;;;20.82;69.75;94681.81;4371054;32;20227;-60
2022/08/15 07:26:46;;;;;;;0.50;0.50;;;;;;;20.85;69.77;94676.44;4382466;32;20231;-60
2022/08/15 07:29:25;;;;;;;0.47;0.47;;;;;;;20.82;70.15;94684.50;4372076;32;20218;-60
2022/08/15 07:31:58;;;;;;;0.83;0.83;;;;;;;20.88;70.06;94689.19;4378623;32;20197;-60
2022/08/15 07:34:24;;;;;;;0.77;0.77;;;;;;;20.84;70.07;94680.28;4374927;32;20196;-60
2022/08/15 07:36:58;;;;;;;0.40;0.40;;;;;;;20.88;70.07;94683.00;4383919;32;20193;-60
2022/08/15 07:39:26;;;;;;;1.00;1.00;;;;;;;20.96;69.97;94673.84;4369777;32;20180;-60
2022/08/15 07:41:51;;;;;;;0.40;0.40;;;;;;;21.07;69.75;94671.97;4376943;32;20268;-60
2022/08/15 07:44:30;;;;;;;0.30;0.30;;;;;;;21.14;69.47;94672.03;4381438;32;20177;-60
2022/08/15 07:46:56;;;;;;;0.97;0.70;;;;;;;21.15;69.29;94678.97;4394826;32;20215;-60
2022/08/15 07:49:25;;;;;;;0.53;0.53;;;;;;;21.21;69.49;94674.00;4365428;32;20184;-60
2022/08/15 07:52:14;;;;;;;0.20;0.20;;;;;;;21.40;68.41;94675.66;4380989;32;20351;-60
2022/08/15 07:54:49;;;;;;;0.40;0.40;;;;;;;21.43;68.37;94672.19;4374339;32;20188;-60
2022/08/15 07:57:30;;;;;;;2.47;0.60;;;;;;;21.49;68.50;94673.37;4379578;32;20207;-60
2022/08/15 08:00:14;;;;;;;0.50;0.50;;;;;;;21.51;67.69;94674.56;4376644;32;20337;-60
2022/08/15 08:03:11;;;;;;;0.67;0.67;;;;;;;21.54;67.74;94675.72;4365618;32;20185;-60
2022/08/15 08:05:51;;;;;;;0.67;0.67;;;;;;;21.64;67.23;94675.00;4374856;32;20185;-60
2022/08/15 08:08:19;;;;;;;1.10;1.00;;;;;;;21.61;67.32;94670.38;4380255;32;20203;-60
2022/08/15 08:10:53;;;;;;;0.43;0.43;;;;;;;21.57;67.26;94673.06;4378274;32;20192;-61
2022/08/15 08:13:38;;;;;;;0.67;0.67;;;;;;;21.60;67.34;94674.22;4375341;32;20206;-60
2022/08/15 08:16:25;;;;;;;0.70;0.70;;;;;;;21.74;67.06;94676.97;4373065;32;20196;-60
2022/08/15 08:19:03;;;;;;;0.27;0.27;;;;;;;21.73;67.24;94672.72;4373189;32;20185;-60
2022/08/15 08:21:40;;;;;;;0.77;0.77;;;;;;;21.95;67.25;94674.34;4375305;32;20287;-60
2022/08/15 08:24:25;;;;;;;0.57;0.57;;;;;;;22.08;66.45;94665.91;4383008;32;20218;-60
2022/08/15 08:26:58;;;;;;;0.80;0.80;;;;;;;22.15;66.06;94676.75;4379270;32;20215;-61
2022/08/15 08:30:19;;;;;;;0.43;0.43;;;;;;;22.21;66.01;94676.00;4371624;32;20186;-60
2022/08/15 08:33:05;;;;;;;0.63;0.50;;;;;;;22.35;64.22;94680.63;4371912;32;20194;-60
2022/08/15 08:35:52;;;;;;;1.20;0.67;;;;;;;22.37;64.41;94681.03;4377660;32;20215;-60
2022/08/15 08:38:36;;;;;;;0.53;0.53;;;;;;;22.43;63.71;94682.19;4375389;32;20192;-60
2022/08/15 08:41:29;;;;;;;0.70;0.50;;;;;;;22.33;63.39;94682.16;4383336;32;20173;-60
2022/08/15 08:44:15;;;;;;;0.30;0.30;;;;;;;22.30;63.76;94681.00;4364750;32;20207;-60
2022/08/15 08:46:50;;;;;;;0.47;0.47;;;;;;;22.23;64.16;94681.78;4384524;32;20203;-61
2022/08/15 08:49:30;;;;;;;0.40;0.40;;;;;;;22.27;64.96;94682.53;4376190;32;20201;-60
2022/08/15 08:52:04;;;;;;;0.67;0.67;;;;;;;22.31;63.70;94679.84;4376557;32;20212;-60
2022/08/15 08:54:44;;;;;;;0.47;0.47;;;;;;;22.32;64.64;94678.69;4388090;32;20188;-60
2022/08/15 08:57:16;;;;;;;0.43;0.43;;;;;;;22.34;64.43;94673.69;4371846;32;20185;-61
2022/08/15 09:00:31;;;;;;;4.03;2.37;;;;;;;22.25;64.34;94675.97;4377473;32;20207;-61
2022/08/15 09:03:09;;;;;;;2.43;1.53;;;;;;;22.26;65.40;94683.69;4350471;32;20212;-61
2022/08/15 09:05:44;;;;;;;0.80;0.80;;;;;;;22.28;64.44;94677.91;4382731;32;20208;-61
2022/08/15 09:08:16;;;;;;;0.73;0.73;;;;;;;22.31;64.42;94679.84;4372425;32;20181;-61
2022/08/15 09:10:47;;;;;;;0.73;0.73;;;;;;;22.34;64.44;94681.78;4375214;32;20252;-61
2022/08/15 09:13:34;;;;;;;0.83;0.80;;;;;;;22.45;63.66;94671.75;4370192;32;20195;-61
2022/08/15 09:16:10;;;;;;;0.47;0.47;;;;;;;22.38;63.95;94676.41;4376868;32;20184;-61
2022/08/15 09:18:50;;;;;;;0.63;0.63;;;;;;;22.36;63.27;94684.88;4387364;32;20222;-60
2022/08/15 09:21:17;;;;;;;0.50;0.50;;;;;;;22.32;63.24;94686.81;4367375;32;20280;-60
2022/08/15 09:23:45;;;;;;;0.90;0.90;;;;;;;22.23;63.76;94681.78;4377402;32;20185;-60
2022/08/15 09:26:13;;;;;;;1.20;1.10;;;;;;;22.20;63.94;94685.25;4386816;32;20200;-60
2022/08/15 09:28:43;;;;;;;0.10;0.10;;;;;;;22.18;64.31;94681.37;4370361;32;20219;-61
2022/08/15 09:31:22;;;;;;;0.30;0.30;;;;;;;22.19;63.73;94682.94;4375477;32;20195;-61
2022/08/15 09:33:57;;;;;;;1.70;1.20;;;;;;;22.21;62.98;94680.63;4393921;32;20195;-61
2022/08/15 09:36:37;;;;;;;0.80;0.80;;;;;;;22.22;63.17;94687.56;4385264;32;20192;-61
2022/08/15 09:39:26;;;;;;;0.33;0.33;;;;;;;22.26;63.61;94689.09;4385403;32;20200;-61
2022/08/15 09:42:08;;;;;;;1.37;1.23;;;;;;;22.37;63.32;94672.91;4367814;32;20188;-61
2022/08/15 09:45:10;;;;;;;0.07;0.07;;;;;;;22.51;62.91;94674.84;4384098;32;20184;-61
2022/08/15 09:48:01;;;;;;;0.73;0.73;;;;;;;22.56;62.73;94679.88;4380555;32;20175;-60
2022/08/15 09:50:49;;;;;;;0.40;0.40;;;;;;;22.52;62.88;94674.47;4381419;32;20232;-61
2022/08/15 09:53:26;;;;;;;0.73;0.47;;;;;;;22.66;62.37;94681.81;4372888;32;20252;-61
2022/08/15 09:55:53;;;;;;;0.83;0.83;;;;;;;22.59;62.32;94682.59;4381846;32;20192;-60
2022/08/15 09:58:35;;;;;;;0.37;0.37;;;;;;;22.69;62.23;94682.97;4378648;32;20203;-61
2022/08/15 10:01:03;;;;;;;0.30;0.30;;;;;;;22.70;62.19;94676.41;4361288;32;20235;-60
2022/08/15 10:03:45;;;;;;;0.37;0.37;;;;;;;22.74;61.79;94686.06;4372391;32;20238;-61
2022/08/15 10:06:23;;;;;;;0.50;0.50;;;;;;;22.80;61.97;94686.50;4369114;32;20224;-61
2022/08/15 10:08:55;;;;;;;0.50;0.50;;;;;;;22.84;61.96;94684.56;4374810;32;20223;-61
2022/08/15 10:11:35;;;;;;;0.60;0.60;;;;;;;22.88;62.60;94685.31;4384307;32;20176;-61
2022/08/15 10:14:25;;;;;;;0.50;0.50;;;;;;;22.77;62.21;94685.34;4381016;32;20229;-61
2022/08/15 10:16:54;;;;;;;1.13;1.03;;;;;;;22.90;62.16;94688.41;4389528;32;20334;-61
2022/08/15 10:19:38;;;;;;;2.53;0.53;;;;;;;23.07;61.80;94686.88;4383770;32;20196;-61
2022/08/15 10:22:33;;;;;;;0.83;0.70;;;;;;;23.11;60.59;94677.56;4380853;32;20192;-61
2022/08/15 10:25:39;;;;;;;0.40;0.40;;;;;;;23.21;60.66;94679.50;4338584;32;20299;-60
2022/08/15 10:28:10;;;;;;;0.10;0.10;;;;;;;23.29;59.81;94678.31;4371753;32;20243;-61
2022/08/15 10:30:44;;;;;;;0.33;0.33;;;;;;;23.40;59.77;94677.50;4381790;32;20207;-61
2022/08/15 10:33:25;;;;;;;0.43;0.43;;;;;;;23.50;59.60;94676.69;4376707;32;20192;-61
2022/08/15 10:35:55;;;;;;;0.60;0.60;;;;;;;23.46;59.70;94670.53;4379736;32;20208;-61
2022/08/15 10:38:25;;;;;;;1.07;0.40;;;;;;;23.48;59.78;94665.50;4380664;32;20244;-61
2022/08/15 10:41:13;;;;;;;0.43;0.43;;;;;;;23.68;59.13;94663.94;4374704;32;20260;-60
2022/08/15 10:44:07;;;;;;;0.60;0.60;;;;;;;23.71;59.86;94673.16;4371845;32;20230;-61
2022/08/15 10:46:44;;;;;;;0.50;0.50;;;;;;;23.72;58.76;94674.72;4380787;32;20197;-60
2022/08/15 10:49:35;;;;;;;0.67;0.67;;;;;;;23.68;58.18;94674.75;4379328;32;20181;-61
2022/08/15 10:52:19;;;;;;;0.40;0.40;;;;;;;23.81;58.47;94670.44;4384329;32;20192;-60
2022/08/15 10:54:59;;;;;;;0.63;0.63;;;;;;;23.95;57.65;94658.75;4376493;32;20181;-60
2022/08/15 10:57:30;;;;;;;0.97;0.97;;;;;;;23.96;56.80;94661.06;4378867;32;20197;-60
2022/08/15 10:59:56;;;;;;;0.67;0.67;;;;;;;23.93;57.08;94653.72;4373664;32;20244;-60
2022/08/15 11:02:38;;;;;;;0.50;0.50;;;;;;;23.94;57.08;94652.56;4373704;32;20185;-63
2022/08/15 11:05:09;;;;;;;1.33;1.27;;;;;;;23.99;56.79;94652.16;4376518;32;20260;-61
2022/08/15 11:07:37;;;;;;;4.03;3.53;;;;;;;24.16;56.03;94668.72;4376595;32;20207;-61
2022/08/15 11:10:15;;;;;;;3.90;2.20;;;;;;;24.22;56.17;94657.06;4376665;32;20184;-61
2022/08/15 11:12:45;;;;;;;1.03;1.03;;;;;;;24.13;56.57;94653.22;4370375;32;20210;-61
2022/08/15 11:15:20;;;;;;;15.53;1.07;;;;;;;24.06;56.77;94658.72;4380696;32;20189;-62
2022/08/15 11:18:04;;;;;;;0.57;0.57;;;;;;;24.17;56.20;94649.34;4374759;32;20226;-61
2022/08/15 11:20:52;;;;;;;0.37;0.37;;;;;;;24.24;55.88;94654.75;4368467;32;20193;-61
2022/08/15 11:23:39;;;;;;;0.33;0.33;;;;;;;24.24;55.93;94648.56;4374025;32;20188;-61
2022/08/15 11:26:08;;;;;;;0.50;0.50;;;;;;;24.23;55.77;94653.19;4375684;32;20185;-60
2022/08/15 11:28:33;;;;;;;1.60;1.60;;;;;;;24.32;55.56;94648.09;4381890;32;20207;-60
2022/08/15 11:31:07;;;;;;;1.17;1.17;;;;;;;24.35;54.92;94651.97;4371955;32;20270;-60
2022/08/15 11:33:43;;;;;;;1.20;1.20;;;;;;;24.31;54.36;94645.81;4375734;32;20202;-60
2022/08/15 11:36:20;;;;;;;1.67;1.67;;;;;;;24.28;54.58;94647.38;4380585;32;20216;-60
2022/08/15 11:38:50;;;;;;;1.50;1.40;;;;;;;24.15;55.72;94645.47;4371847;32;20199;-60
2022/08/15 11:41:27;;;;;;;0.73;0.73;;;;;;;23.97;55.76;94648.28;4378572;32;20223;-60
2022/08/15 11:43:57;;;;;;;2.40;2.23;;;;;;;24.05;55.28;94635.47;4381312;32;20211;-60
2022/08/15 11:46:25;;;;;;;0.87;0.73;;;;;;;24.18;53.23;94637.31;4370901;32;20189;-60
2022/08/15 11:49:03;;;;;;;0.93;0.93;;;;;;;24.08;54.31;94640.13;4378230;32;20188;-60
2022/08/15 11:51:35;;;;;;;0.90;0.90;;;;;;;24.06;54.19;94640.50;4380405;32;20284;-60
2022/08/15 11:54:18;;;;;;;1.20;1.20;;;;;;;24.13;53.16;94631.53;4389070;32;20188;-60
2022/08/15 11:57:00;;;;;;;0.60;0.60;;;;;;;24.19;52.46;94636.16;4375285;32;20180;-60
2022/08/15 11:59:32;;;;;;;0.20;0.20;;;;;;;24.20;52.67;94636.94;4393804;32;20184;-60
2022/08/15 12:02:23;;;;;;;0.53;0.53;;;;;;;24.16;54.46;94630.75;4369647;32;20194;-61
2022/08/15 12:04:49;;;;;;;0.57;0.57;;;;;;;24.18;53.90;94634.63;4372924;32;20259;-60
2022/08/15 12:07:27;;;;;;;2.07;1.97;;;;;;;24.25;53.25;94639.25;4373508;32;20225;-60
2022/08/15 12:09:59;;;;;;;1.00;1.00;;;;;;;24.20;54.07;94628.78;4372836;32;20184;-61